Time;durP1;ratioP1;P1;durP2;ratioP2;P2;SDS_P1;SDS_P2;PMS_P1;PMS_P2;Temp;Humidity;BMP_temperature;BMP_pressure;BME280_temperature;BME280_humidity;BME280_pressure;Samples;Min_cycle;Max_cycle;Signal;HPM_P1;HPM_P2
2022/01/28 01:30:01;;;;;;;0.00;0.00;;;;;;;;;;5092832;27;20676;-72
2022/01/28 01:32:28;;;;;;;0.00;0.00;;;;;;;;;;5076621;28;21094;-71
2022/01/28 01:34:55;;;;;;;0.00;0.00;;;;;;;;;;5082571;28;20190;-68
2022/01/28 01:37:23;;;;;;;0.00;0.00;;;;;;;;;;5079376;28;20209;-69
2022/01/28 01:39:52;;;;;;;0.10;0.10;;;;;;;;;;5078307;28;20230;-73
2022/01/28 01:42:28;;;;;;;0.00;0.00;;;;;;;;;;5081424;28;20194;-71
2022/01/28 01:53:19;;;;;;;0.20;0.20;;;;;;;;;;5078404;28;20471;-71
2022/01/28 01:55:48;;;;;;;0.00;0.00;;;;;;;;;;5079582;28;20210;-70
2022/01/28 01:58:15;;;;;;;0.00;0.00;;;;;;;;;;5079471;28;20217;-70
2022/01/28 02:00:44;;;;;;;0.00;0.00;;;;;;;;;;5078115;28;20206;-70
2022/01/28 02:03:11;;;;;;;0.00;0.00;;;;;;;;;;5076153;28;20190;-70
2022/01/28 02:05:39;;;;;;;0.00;0.00;;;;;;;;;;5079098;28;20294;-69
2022/01/28 02:08:06;;;;;;;0.00;0.00;;;;;;;;;;5079625;28;20214;-71
2022/01/28 02:10:34;;;;;;;0.00;0.00;;;;;;;;;;5082727;28;20331;-71
2022/01/28 02:13:01;;;;;;;0.00;0.00;;;;;;;;;;5079943;28;20203;-72
2022/01/28 02:15:29;;;;;;;0.00;0.00;;;;;;;;;;5079478;28;20197;-71
2022/01/28 02:17:59;;;;;;;0.00;0.00;;;;;;;;;;5078069;28;20248;-71
2022/01/28 02:20:32;;;;;;;0.00;0.00;;;;;;;;;;5076461;28;20219;-71
2022/01/28 02:22:59;;;;;;;0.00;0.00;;;;;;;;;;5078509;28;20281;-70
2022/01/28 02:25:27;;;;;;;0.00;0.00;;;;;;;;;;5078198;28;20194;-71
2022/01/28 02:27:56;;;;;;;0.00;0.00;;;;;;;;;;5078471;28;20309;-71
2022/01/28 02:30:23;;;;;;;0.00;0.00;;;;;;;;;;5075183;28;20187;-71
2022/01/28 02:32:56;;;;;;;0.00;0.00;;;;;;;;;;5080555;28;20206;-71
2022/01/28 02:35:24;;;;;;;0.00;0.00;;;;;;;;;;5079847;28;20260;-71
2022/01/28 02:37:52;;;;;;;0.00;0.00;;;;;;;;;;5083649;28;20710;-70
2022/01/28 02:40:20;;;;;;;0.00;0.00;;;;;;;;;;5075293;28;20288;-70
2022/01/28 02:42:55;;;;;;;0.00;0.00;;;;;;;;;;5071276;28;20203;-70
2022/01/28 02:45:30;;;;;;;0.00;0.00;;;;;;;;;;5066146;28;20194;-70
2022/01/28 02:48:01;;;;;;;0.00;0.00;;;;;;;;;;5066422;28;20209;-70
2022/01/28 02:50:33;;;;;;;0.00;0.00;;;;;;;;;;5061798;28;20233;-72
2022/01/28 02:53:05;;;;;;;0.00;0.00;;;;;;;;;;5064041;28;20644;-73
2022/01/28 02:55:37;;;;;;;0.00;0.00;;;;;;;;;;5063257;28;20635;-72
2022/01/28 02:58:17;;;;;;;0.00;0.00;;;;;;;;;;5060935;28;20237;-72
2022/01/28 03:00:46;;;;;;;0.00;0.00;;;;;;;;;;5063896;28;20188;-72
2022/01/28 03:03:14;;;;;;;0.00;0.00;;;;;;;;;;5063148;28;20203;-71
2022/01/28 03:05:41;;;;;;;0.00;0.00;;;;;;;;;;5064308;28;20659;-72
2022/01/28 03:08:10;;;;;;;0.00;0.00;;;;;;;;;;5063170;28;20187;-71
2022/01/28 03:10:57;;;;;;;0.00;0.00;;;;;;;;;;5061689;28;20201;-73
2022/01/28 03:13:35;;;;;;;0.00;0.00;;;;;;;;;;5063754;28;20206;-71
2022/01/28 03:16:12;;;;;;;0.00;0.00;;;;;;;;;;5062136;28;20244;-73
2022/01/28 03:18:48;;;;;;;0.00;0.00;;;;;;;;;;5063102;28;20229;-72
2022/01/28 03:21:39;;;;;;;0.00;0.00;;;;;;;;;;5063243;28;20194;-71
2022/01/28 03:24:09;;;;;;;0.00;0.00;;;;;;;;;;5066327;28;20199;-71
2022/01/28 03:26:37;;;;;;;0.00;0.00;;;;;;;;;;5065423;28;20199;-71
2022/01/28 03:29:04;;;;;;;0.00;0.00;;;;;;;;;;5061956;28;20714;-72
2022/01/28 03:31:32;;;;;;;0.00;0.00;;;;;;;;;;5059746;28;20844;-72
2022/01/28 03:33:59;;;;;;;0.00;0.00;;;;;;;;;;5066090;28;20206;-71
2022/01/28 03:36:26;;;;;;;0.00;0.00;;;;;;;;;;5063495;28;20214;-69
2022/01/28 03:38:54;;;;;;;0.00;0.00;;;;;;;;;;5064228;28;20223;-72
2022/01/28 03:41:24;;;;;;;0.00;0.00;;;;;;;;;;5065184;28;20198;-73
2022/01/28 03:43:57;;;;;;;0.00;0.00;;;;;;;;;;5065626;28;20305;-71
2022/01/28 03:46:25;;;;;;;0.10;0.10;;;;;;;;;;5068764;28;20195;-72
2022/01/28 03:48:53;;;;;;;0.00;0.00;;;;;;;;;;5068630;28;20234;-71
2022/01/28 03:51:20;;;;;;;0.00;0.00;;;;;;;;;;5069336;28;20680;-70
2022/01/28 03:53:47;;;;;;;0.00;0.00;;;;;;;;;;5070409;28;20214;-71
2022/01/28 03:56:15;;;;;;;0.00;0.00;;;;;;;;;;5070618;28;20194;-71
2022/01/28 03:58:44;;;;;;;0.00;0.00;;;;;;;;;;5068831;28;20219;-71
2022/01/28 04:01:18;;;;;;;0.00;0.00;;;;;;;;;;5069934;28;20202;-71
2022/01/28 04:04:05;;;;;;;0.00;0.00;;;;;;;;;;5065287;28;20198;-72
2022/01/28 04:12:14;;;;;;;0.00;0.00;;;;;;;;;;5005430;28;20213;-71
2022/01/28 04:14:48;;;;;;;0.30;0.30;;;;;;;;;;5053926;28;20213;-70
2022/01/28 04:17:22;;;;;;;0.00;0.00;;;;;;;;;;5069948;28;20321;-71
2022/01/28 04:19:50;;;;;;;0.00;0.00;;;;;;;;;;5080322;28;20229;-71
2022/01/28 04:22:18;;;;;;;0.00;0.00;;;;;;;;;;5063248;28;20202;-71
2022/01/28 04:24:45;;;;;;;0.00;0.00;;;;;;;;;;5069942;28;20202;-72
2022/01/28 04:27:12;;;;;;;0.20;0.20;;;;;;;;;;5069555;28;20187;-71
2022/01/28 04:29:40;;;;;;;0.00;0.00;;;;;;;;;;5068348;28;20230;-71
2022/01/28 04:32:10;;;;;;;0.40;0.40;;;;;;;;;;5069011;28;20198;-71
2022/01/28 04:34:38;;;;;;;0.00;0.00;;;;;;;;;;5067907;28;20206;-70
2022/01/28 04:37:14;;;;;;;0.10;0.10;;;;;;;;;;5069206;28;20190;-72
2022/01/28 04:39:49;;;;;;;0.00;0.00;;;;;;;;;;5068684;28;20656;-71
2022/01/28 04:42:30;;;;;;;0.00;0.00;;;;;;;;;;5068989;28;20221;-71
2022/01/28 04:45:04;;;;;;;0.00;0.00;;;;;;;;;;5068520;28;20285;-71
2022/01/28 04:47:40;;;;;;;0.00;0.00;;;;;;;;;;5069158;28;20206;-70
2022/01/28 04:50:15;;;;;;;0.00;0.00;;;;;;;;;;5069425;28;20201;-70
2022/01/28 04:53:02;;;;;;;0.00;0.00;;;;;;;;;;5067667;28;20202;-72
2022/01/28 04:55:50;;;;;;;0.00;0.00;;;;;;;;;;5065261;28;20199;-70
2022/01/28 04:58:40;;;;;;;0.00;0.00;;;;;;;;;;5068078;28;20198;-70
2022/01/28 05:01:41;;;;;;;0.00;0.00;;;;;;;;;;5069709;28;20191;-70
2022/01/28 05:04:35;;;;;;;0.00;0.00;;;;;;;;;;5067511;28;20625;-70
2022/01/28 05:24:29;;;;;;;0.10;0.10;;;;;;;;;;5061423;28;20263;-71
2022/01/28 05:26:59;;;;;;;0.00;0.00;;;;;;;;;;5063446;28;20195;-71
2022/01/28 05:29:27;;;;;;;0.00;0.00;;;;;;;;;;5061756;28;20693;-70
2022/01/28 05:31:55;;;;;;;0.00;0.00;;;;;;;;;;5059031;28;20214;-70
2022/01/28 05:34:25;;;;;;;0.00;0.00;;;;;;;;;;5062066;28;20714;-72
2022/01/28 05:36:54;;;;;;;0.00;0.00;;;;;;;;;;5062306;28;20195;-71
2022/01/28 05:39:22;;;;;;;0.30;0.30;;;;;;;;;;5062184;28;20222;-70
2022/01/28 05:41:49;;;;;;;0.00;0.00;;;;;;;;;;5059874;28;20696;-71
2022/01/28 05:44:18;;;;;;;0.00;0.00;;;;;;;;;;5061117;28;20789;-71
2022/01/28 05:46:45;;;;;;;0.00;0.00;;;;;;;;;;5061065;28;20521;-72
2022/01/28 05:49:14;;;;;;;0.00;0.00;;;;;;;;;;5063148;28;20210;-71
2022/01/28 05:51:41;;;;;;;0.00;0.00;;;;;;;;;;5061354;28;20197;-71
2022/01/28 05:54:10;;;;;;;0.00;0.00;;;;;;;;;;5062305;28;20228;-71
2022/01/28 05:56:38;;;;;;;0.00;0.00;;;;;;;;;;5062269;28;20207;-71
2022/01/28 05:59:05;;;;;;;0.47;0.37;;;;;;;;;;5061932;28;20202;-71
2022/01/28 06:01:33;;;;;;;0.00;0.00;;;;;;;;;;5058968;28;20572;-71
2022/01/28 06:04:00;;;;;;;0.00;0.00;;;;;;;;;;5060844;28;20517;-71
2022/01/28 06:06:28;;;;;;;0.00;0.00;;;;;;;;;;5068698;28;20195;-71
2022/01/28 06:08:56;;;;;;;0.00;0.00;;;;;;;;;;5068323;28;20230;-71
2022/01/28 06:11:25;;;;;;;0.07;0.07;;;;;;;;;;5068058;28;20203;-70
2022/01/28 06:13:53;;;;;;;0.00;0.00;;;;;;;;;;5065383;28;20668;-72
2022/01/28 06:16:20;;;;;;;0.00;0.00;;;;;;;;;;5069022;28;20210;-70
2022/01/28 06:18:48;;;;;;;0.00;0.00;;;;;;;;;;5074798;28;20936;-69
2022/01/28 06:21:16;;;;;;;0.00;0.00;;;;;;;;;;5062729;28;20239;-69
2022/01/28 06:23:43;;;;;;;0.00;0.00;;;;;;;;;;5061205;28;20202;-71
2022/01/28 06:26:11;;;;;;;0.00;0.00;;;;;;;;;;5072133;28;20678;-71
2022/01/28 06:28:40;;;;;;;0.00;0.00;;;;;;;;;;5071961;28;20307;-72
2022/01/28 06:31:07;;;;;;;0.00;0.00;;;;;;;;;;5069145;28;20195;-71
2022/01/28 06:33:34;;;;;;;0.00;0.00;;;;;;;;;;5071637;28;20210;-71
2022/01/28 06:36:02;;;;;;;0.10;0.10;;;;;;;;;;5071698;28;20575;-71
2022/01/28 06:38:29;;;;;;;0.00;0.00;;;;;;;;;;5070778;28;20199;-71
2022/01/28 06:40:56;;;;;;;0.00;0.00;;;;;;;;;;5068757;28;20229;-72
2022/01/28 06:43:24;;;;;;;0.00;0.00;;;;;;;;;;5070786;28;20199;-74
2022/01/28 06:45:53;;;;;;;0.00;0.00;;;;;;;;;;5067245;28;20260;-70
2022/01/28 06:48:20;;;;;;;0.00;0.00;;;;;;;;;;5069985;28;20631;-73
2022/01/28 06:50:48;;;;;;;0.00;0.00;;;;;;;;;;5067361;28;20281;-77
2022/01/28 06:53:15;;;;;;;0.00;0.00;;;;;;;;;;5063591;28;20195;-75
2022/01/28 06:55:43;;;;;;;0.00;0.00;;;;;;;;;;5059240;28;20952;-71
2022/01/28 06:58:11;;;;;;;0.00;0.00;;;;;;;;;;5061784;28;20781;-71
2022/01/28 07:00:39;;;;;;;0.00;0.00;;;;;;;;;;5062019;28;20241;-71
2022/01/28 07:03:09;;;;;;;0.00;0.00;;;;;;;;;;5062422;28;20206;-72
2022/01/28 07:05:36;;;;;;;0.00;0.00;;;;;;;;;;5059703;28;20198;-71
2022/01/28 07:08:04;;;;;;;0.00;0.00;;;;;;;;;;5061688;28;20206;-73
2022/01/28 07:10:32;;;;;;;0.00;0.00;;;;;;;;;;5062501;28;20203;-72
2022/01/28 07:13:00;;;;;;;0.00;0.00;;;;;;;;;;5059437;28;20206;-72
2022/01/28 07:15:27;;;;;;;0.20;0.20;;;;;;;;;;5059374;28;20662;-70
2022/01/28 07:17:55;;;;;;;0.00;0.00;;;;;;;;;;5063158;28;20686;-73
2022/01/28 07:20:24;;;;;;;0.00;0.00;;;;;;;;;;5058744;28;20230;-70
2022/01/28 07:22:51;;;;;;;0.00;0.00;;;;;;;;;;5060689;28;20676;-69
2022/01/28 07:25:18;;;;;;;0.00;0.00;;;;;;;;;;5061317;28;20199;-70
2022/01/28 07:27:46;;;;;;;0.00;0.00;;;;;;;;;;5061365;28;20214;-75
2022/01/28 07:30:14;;;;;;;0.00;0.00;;;;;;;;;;5062486;28;20676;-73
2022/01/28 07:32:42;;;;;;;0.10;0.10;;;;;;;;;;5061230;28;20222;-74
2022/01/28 07:35:09;;;;;;;0.00;0.00;;;;;;;;;;5054522;28;20207;-71
2022/01/28 07:37:38;;;;;;;0.00;0.00;;;;;;;;;;5047177;28;20195;-74
2022/01/28 07:40:06;;;;;;;0.00;0.00;;;;;;;;;;5046124;28;20218;-76
2022/01/28 07:42:35;;;;;;;0.00;0.00;;;;;;;;;;5046055;28;20206;-73
2022/01/28 07:45:03;;;;;;;0.00;0.00;;;;;;;;;;5047497;28;20194;-71
2022/01/28 07:47:31;;;;;;;0.00;0.00;;;;;;;;;;5049336;28;20218;-75
2022/01/28 07:49:58;;;;;;;0.60;0.60;;;;;;;;;;5050948;28;20194;-72
2022/01/28 07:52:25;;;;;;;0.00;0.00;;;;;;;;;;5050646;28;20199;-71
2022/01/28 07:54:54;;;;;;;0.00;0.00;;;;;;;;;;5053605;28;20195;-70
2022/01/28 07:57:21;;;;;;;0.00;0.00;;;;;;;;;;5053390;28;20208;-72
2022/01/28 07:59:49;;;;;;;0.00;0.00;;;;;;;;;;5054402;28;20225;-71
2022/01/28 08:02:16;;;;;;;0.00;0.00;;;;;;;;;;5054407;28;20992;-72
2022/01/28 08:04:44;;;;;;;0.00;0.00;;;;;;;;;;5053876;28;20198;-74
2022/01/28 08:07:11;;;;;;;0.00;0.00;;;;;;;;;;5053990;28;20841;-73
2022/01/28 08:09:38;;;;;;;0.00;0.00;;;;;;;;;;5054460;28;20209;-72
2022/01/28 08:12:08;;;;;;;0.00;0.00;;;;;;;;;;5054440;28;20214;-72
2022/01/28 08:14:35;;;;;;;0.00;0.00;;;;;;;;;;5055090;28;20202;-71
2022/01/28 08:17:03;;;;;;;0.00;0.00;;;;;;;;;;5051589;28;20202;-72
2022/01/28 08:19:30;;;;;;;0.00;0.00;;;;;;;;;;5051042;28;20190;-73
2022/01/28 08:21:57;;;;;;;0.00;0.00;;;;;;;;;;5051440;28;20219;-72
2022/01/28 08:24:25;;;;;;;0.00;0.00;;;;;;;;;;5054011;28;20188;-72
2022/01/28 08:26:52;;;;;;;0.00;0.00;;;;;;;;;;5054841;28;20697;-75
2022/01/28 08:29:21;;;;;;;0.00;0.00;;;;;;;;;;5051260;28;20254;-75
2022/01/28 08:31:48;;;;;;;0.00;0.00;;;;;;;;;;5053158;28;20202;-75
2022/01/28 08:34:15;;;;;;;0.00;0.00;;;;;;;;;;5051081;28;20547;-74
2022/01/28 08:36:43;;;;;;;0.00;0.00;;;;;;;;;;5048239;28;20219;-76
2022/01/28 08:39:11;;;;;;;0.53;0.53;;;;;;;;;;5052682;28;20199;-74
2022/01/28 08:41:40;;;;;;;0.00;0.00;;;;;;;;;;5057637;28;20587;-75
2022/01/28 08:44:08;;;;;;;0.00;0.00;;;;;;;;;;5053013;28;20206;-75
2022/01/28 08:46:36;;;;;;;0.00;0.00;;;;;;;;;;5055933;28;20206;-75
2022/01/28 08:49:04;;;;;;;0.00;0.00;;;;;;;;;;5058025;28;20308;-75
2022/01/28 08:51:31;;;;;;;0.00;0.00;;;;;;;;;;5057922;28;20709;-74
2022/01/28 08:53:59;;;;;;;0.23;0.23;;;;;;;;;;5056233;28;20659;-74
2022/01/28 08:56:26;;;;;;;0.10;0.10;;;;;;;;;;5052128;28;20187;-74
2022/01/28 08:58:53;;;;;;;0.00;0.00;;;;;;;;;;5053873;28;20210;-73
2022/01/28 09:01:21;;;;;;;0.93;0.93;;;;;;;;;;5055148;28;20223;-75
2022/01/28 09:03:52;;;;;;;0.00;0.00;;;;;;;;;;5055254;28;20199;-75
2022/01/28 09:06:19;;;;;;;0.00;0.00;;;;;;;;;;5058016;28;20750;-75
2022/01/28 09:08:47;;;;;;;0.00;0.00;;;;;;;;;;5055270;28;20198;-73
2022/01/28 09:11:34;;;;;;;0.00;0.00;;;;;;;;;;5055057;28;20199;-74
2022/01/28 09:14:01;;;;;;;0.00;0.00;;;;;;;;;;5048577;28;20698;-74
2022/01/28 09:16:29;;;;;;;0.13;0.13;;;;;;;;;;5048706;28;20201;-74
2022/01/28 09:18:57;;;;;;;0.00;0.00;;;;;;;;;;5054855;28;20198;-75
2022/01/28 09:21:25;;;;;;;0.00;0.00;;;;;;;;;;5059437;28;20223;-74
2022/01/28 09:23:52;;;;;;;0.00;0.00;;;;;;;;;;5052362;28;20202;-74
2022/01/28 09:26:19;;;;;;;0.00;0.00;;;;;;;;;;5052396;28;20264;-76
2022/01/28 09:28:47;;;;;;;0.00;0.00;;;;;;;;;;5061452;28;20300;-76
2022/01/28 09:31:14;;;;;;;0.00;0.00;;;;;;;;;;5059130;28;20214;-76
2022/01/28 09:33:41;;;;;;;0.33;0.33;;;;;;;;;;5052860;28;20232;-76
2022/01/28 09:36:10;;;;;;;0.33;0.33;;;;;;;;;;5059628;28;20218;-77
2022/01/28 09:38:38;;;;;;;0.13;0.13;;;;;;;;;;5053412;28;20600;-75
2022/01/28 09:41:06;;;;;;;0.00;0.00;;;;;;;;;;5053822;28;20233;-76
2022/01/28 09:43:34;;;;;;;0.00;0.00;;;;;;;;;;5060562;28;20194;-76
2022/01/28 09:46:02;;;;;;;0.00;0.00;;;;;;;;;;5055995;28;20194;-76
2022/01/28 09:48:30;;;;;;;0.53;0.53;;;;;;;;;;5055484;28;20466;-79
2022/01/28 09:50:59;;;;;;;0.00;0.00;;;;;;;;;;5061104;28;20203;-76
2022/01/28 09:53:28;;;;;;;0.37;0.20;;;;;;;;;;5058962;28;20228;-76
2022/01/28 09:55:56;;;;;;;0.63;0.40;;;;;;;;;;5057526;28;20254;-76
2022/01/28 09:58:24;;;;;;;0.10;0.10;;;;;;;;;;5061375;28;20664;-75
2022/01/28 10:00:51;;;;;;;0.77;0.77;;;;;;;;;;5060926;28;20234;-75
2022/01/28 10:03:19;;;;;;;1.30;1.20;;;;;;;;;;5059766;28;20199;-75
2022/01/28 10:05:50;;;;;;;3.60;2.53;;;;;;;;;;5071072;28;20679;-76
2022/01/28 10:08:18;;;;;;;1.53;1.30;;;;;;;;;;5071846;28;20199;-74
2022/01/28 10:11:00;;;;;;;0.47;0.47;;;;;;;;;;5069352;28;20191;-80
2022/01/28 10:13:32;;;;;;;0.20;0.20;;;;;;;;;;5067162;28;20281;-75
2022/01/28 10:16:01;;;;;;;1.67;0.37;;;;;;;;;;5069564;28;20299;-75
2022/01/28 10:18:41;;;;;;;0.77;0.77;;;;;;;;;;5069681;28;20187;-74
2022/01/28 10:21:20;;;;;;;0.50;0.50;;;;;;;;;;5068198;28;20643;-79
2022/01/28 10:23:56;;;;;;;0.50;0.30;;;;;;;;;;5068567;28;20203;-77
2022/01/28 10:26:30;;;;;;;0.40;0.33;;;;;;;;;;5065394;28;20206;-76
2022/01/28 10:28:58;;;;;;;1.30;1.20;;;;;;;;;;5070068;28;20230;-73
2022/01/28 10:31:34;;;;;;;0.63;0.63;;;;;;;;;;5067068;28;20571;-77
2022/01/28 10:34:11;;;;;;;0.10;0.10;;;;;;;;;;5067969;28;20206;-75
2022/01/28 10:36:39;;;;;;;0.00;0.00;;;;;;;;;;5068170;28;20244;-72
2022/01/28 10:39:06;;;;;;;0.47;0.47;;;;;;;;;;5067510;28;20648;-73
2022/01/28 10:41:35;;;;;;;1.00;0.90;;;;;;;;;;5068666;28;20232;-74
2022/01/28 10:44:02;;;;;;;0.80;0.80;;;;;;;;;;5071700;28;20298;-75
2022/01/28 10:46:33;;;;;;;0.30;0.30;;;;;;;;;;5072519;28;20213;-74
2022/01/28 10:49:02;;;;;;;0.53;0.53;;;;;;;;;;5071096;28;20222;-75
2022/01/28 10:51:40;;;;;;;4.23;2.57;;;;;;;;;;5068512;28;20285;-74
2022/01/28 10:54:08;;;;;;;1.33;1.33;;;;;;;;;;5068124;28;20280;-75
2022/01/28 10:56:51;;;;;;;1.27;1.17;;;;;;;;;;5069215;28;20215;-76
2022/01/28 10:59:19;;;;;;;0.07;0.07;;;;;;;;;;5067103;28;20668;-76
2022/01/28 11:01:47;;;;;;;0.57;0.57;;;;;;;;;;5065633;28;20612;-76
2022/01/28 11:04:15;;;;;;;0.00;0.00;;;;;;;;;;5067738;28;20541;-75
2022/01/28 11:06:43;;;;;;;0.87;0.40;;;;;;;;;;5068177;28;20191;-74
2022/01/28 11:09:11;;;;;;;1.07;1.07;;;;;;;;;;5068214;28;20832;-74
2022/01/28 11:11:39;;;;;;;1.57;0.30;;;;;;;;;;5068311;28;20211;-73
2022/01/28 11:14:09;;;;;;;1.03;0.67;;;;;;;;;;5060984;28;20214;-74
2022/01/28 11:16:37;;;;;;;1.73;1.60;;;;;;;;;;5059092;28;20245;-73
2022/01/28 11:19:04;;;;;;;1.57;1.03;;;;;;;;;;5058139;28;20207;-72
2022/01/28 11:21:35;;;;;;;5.10;1.60;;;;;;;;;;5057925;28;20221;-74
2022/01/28 11:24:06;;;;;;;4.13;1.93;;;;;;;;;;5058828;28;20693;-72
2022/01/28 11:26:39;;;;;;;0.57;0.57;;;;;;;;;;5057438;28;20203;-71
2022/01/28 11:29:13;;;;;;;0.13;0.13;;;;;;;;;;5061788;28;20466;-73
2022/01/28 11:31:44;;;;;;;0.23;0.23;;;;;;;;;;5058816;28;20559;-77
2022/01/28 11:34:18;;;;;;;0.63;0.63;;;;;;;;;;5057404;28;20209;-77
2022/01/28 11:36:46;;;;;;;0.53;0.40;;;;;;;;;;5057235;28;21000;-75
2022/01/28 11:39:22;;;;;;;1.20;1.10;;;;;;;;;;5059372;28;20198;-73
2022/01/28 11:42:03;;;;;;;0.40;0.40;;;;;;;;;;5060220;28;20226;-72
2022/01/28 11:44:54;;;;;;;4.07;3.43;;;;;;;;;;5063230;28;20199;-77
2022/01/28 11:47:23;;;;;;;0.97;0.97;;;;;;;;;;5066545;28;20203;-79
2022/01/28 11:49:54;;;;;;;1.93;1.03;;;;;;;;;;5067187;28;20218;-77
2022/01/28 11:52:22;;;;;;;1.93;1.73;;;;;;;;;;5063556;28;20221;-76
2022/01/28 11:54:49;;;;;;;0.00;0.00;;;;;;;;;;5058436;28;20191;-73
2022/01/28 11:57:17;;;;;;;0.10;0.10;;;;;;;;;;5058470;28;20553;-79
2022/01/28 11:59:49;;;;;;;0.53;0.53;;;;;;;;;;5058153;28;20676;-74
2022/01/28 12:02:18;;;;;;;0.20;0.20;;;;;;;;;;5057752;28;20226;-76
2022/01/28 12:04:46;;;;;;;0.40;0.37;;;;;;;;;;5057465;28;20199;-75
2022/01/28 12:07:15;;;;;;;0.53;0.53;;;;;;;;;;5058274;28;20676;-74
2022/01/28 12:09:44;;;;;;;0.03;0.03;;;;;;;;;;5058515;28;20916;-75
2022/01/28 12:12:13;;;;;;;3.03;0.83;;;;;;;;;;5058919;28;20251;-74
2022/01/28 12:15:01;;;;;;;0.83;0.50;;;;;;;;;;5056723;28;20199;-74
2022/01/28 12:17:43;;;;;;;0.40;0.40;;;;;;;;;;5058398;28;20675;-71
2022/01/28 12:20:11;;;;;;;1.03;0.87;;;;;;;;;;5064591;28;20195;-76
2022/01/28 12:23:01;;;;;;;0.50;0.50;;;;;;;;;;5064660;28;20234;-78
2022/01/28 12:25:48;;;;;;;3.40;1.50;;;;;;;;;;5060845;28;20199;-74
2022/01/28 12:28:16;;;;;;;1.03;0.83;;;;;;;;;;5056862;28;20223;-74
2022/01/28 12:30:46;;;;;;;2.53;1.60;;;;;;;;;;5050383;28;20755;-74
2022/01/28 12:33:14;;;;;;;0.43;0.43;;;;;;;;;;5053531;28;20199;-73
2022/01/28 12:35:42;;;;;;;0.93;0.93;;;;;;;;;;5051153;28;20205;-73
2022/01/28 12:38:10;;;;;;;5.50;1.90;;;;;;;;;;5056792;28;20656;-77
2022/01/28 12:40:45;;;;;;;1.50;1.40;;;;;;;;;;5051514;28;20265;-74
2022/01/28 12:43:13;;;;;;;0.57;0.57;;;;;;;;;;5055688;28;20256;-79
2022/01/28 12:45:41;;;;;;;1.30;1.03;;;;;;;;;;5055577;28;20199;-76
2022/01/28 12:48:10;;;;;;;3.50;1.20;;;;;;;;;;5051404;28;20261;-73
2022/01/28 12:50:38;;;;;;;2.43;0.97;;;;;;;;;;5052180;28;20234;-73
2022/01/28 12:53:05;;;;;;;0.23;0.23;;;;;;;;;;5049364;28;20210;-73
2022/01/28 12:55:33;;;;;;;1.70;1.27;;;;;;;;;;5050171;28;20205;-72
2022/01/28 12:58:01;;;;;;;2.23;2.03;;;;;;;;;;5057916;28;20565;-73
2022/01/28 13:00:28;;;;;;;1.03;0.87;;;;;;;;;;5057355;28;20754;-72
2022/01/28 13:02:56;;;;;;;2.80;1.90;;;;;;;;;;5055048;28;20226;-74
2022/01/28 13:05:37;;;;;;;2.47;1.67;;;;;;;;;;5056476;28;20210;-74
2022/01/28 13:10:49;;;;;;;2.90;1.73;;;;;;;;;;5053452;28;20214;-75
2022/01/28 13:13:18;;;;;;;4.33;2.17;;;;;;;;;;5051925;28;20547;-77
2022/01/28 13:15:54;;;;;;;3.13;2.87;;;;;;;;;;5051122;28;20300;-73
2022/01/28 13:18:21;;;;;;;1.60;1.50;;;;;;;;;;5049537;28;20206;-79
2022/01/28 13:20:50;;;;;;;3.17;2.97;;;;;;;;;;5051792;28;21435;-74
2022/01/28 13:23:18;;;;;;;2.13;1.93;;;;;;;;;;5049624;28;20223;-76
2022/01/28 13:25:45;;;;;;;9.70;3.53;;;;;;;;;;5051254;28;20213;-76
2022/01/28 13:28:13;;;;;;;1.73;1.63;;;;;;;;;;5053075;28;20223;-73
2022/01/28 13:30:41;;;;;;;2.10;1.87;;;;;;;;;;5055917;28;20285;-75
2022/01/28 13:33:09;;;;;;;1.97;1.27;;;;;;;;;;5054677;28;20575;-75
2022/01/28 13:35:37;;;;;;;1.73;1.23;;;;;;;;;;5049982;28;20586;-75
2022/01/28 13:38:15;;;;;;;0.53;0.53;;;;;;;;;;5057524;28;20211;-75
2022/01/28 13:40:42;;;;;;;1.97;1.87;;;;;;;;;;5058209;28;20194;-74
2022/01/28 13:43:11;;;;;;;3.60;2.30;;;;;;;;;;5058399;28;20313;-75
2022/01/28 13:45:41;;;;;;;0.93;0.93;;;;;;;;;;5060749;28;20198;-74
2022/01/28 13:48:13;;;;;;;5.37;2.57;;;;;;;;;;5057518;28;20203;-74
2022/01/28 13:50:42;;;;;;;2.07;1.53;;;;;;;;;;5055864;28;20285;-75
2022/01/28 13:56:11;;;;;;;2.83;2.10;;;;;;;;;;5058180;28;20228;-74
2022/01/28 13:58:52;;;;;;;1.40;1.30;;;;;;;;;;5057126;28;20218;-74
2022/01/28 14:01:20;;;;;;;0.87;0.63;;;;;;;;;;5058286;28;20252;-73
2022/01/28 14:03:48;;;;;;;5.60;2.87;;;;;;;;;;5057078;28;20253;-75
2022/01/28 14:06:18;;;;;;;1.60;1.50;;;;;;;;;;5058118;28;20249;-74
2022/01/28 14:08:50;;;;;;;5.10;4.07;;;;;;;;;;5056852;28;20730;-74
2022/01/28 14:11:26;;;;;;;1.57;1.07;;;;;;;;;;5055110;28;20720;-74
2022/01/28 14:14:23;;;;;;;4.47;2.37;;;;;;;;;;5056983;28;20243;-74
2022/01/28 14:16:51;;;;;;;4.03;2.13;;;;;;;;;;5029770;28;20204;-75
2022/01/28 14:19:18;;;;;;;2.80;1.53;;;;;;;;;;5055796;28;20197;-75
2022/01/28 14:21:46;;;;;;;2.03;1.93;;;;;;;;;;5057686;28;20200;-75
2022/01/28 14:24:17;;;;;;;1.37;1.37;;;;;;;;;;5056765;28;20198;-74
2022/01/28 14:26:54;;;;;;;1.57;1.47;;;;;;;;;;5056744;28;20293;-75
2022/01/28 14:29:24;;;;;;;2.87;2.60;;;;;;;;;;5056779;28;20307;-75
2022/01/28 14:31:52;;;;;;;1.10;1.03;;;;;;;;;;5057055;28;20191;-75
2022/01/28 14:34:19;;;;;;;1.90;1.73;;;;;;;;;;5055115;28;20206;-74
2022/01/28 14:36:49;;;;;;;0.57;0.57;;;;;;;;;;5058639;28;20199;-74
2022/01/28 14:39:18;;;;;;;1.40;1.30;;;;;;;;;;5060353;28;20598;-75
2022/01/28 14:41:48;;;;;;;2.00;1.77;;;;;;;;;;5060545;28;20556;-76
2022/01/28 14:44:15;;;;;;;4.20;2.53;;;;;;;;;;5061100;28;20718;-74
2022/01/28 14:46:42;;;;;;;1.70;1.60;;;;;;;;;;5061899;28;20203;-74
2022/01/28 14:49:10;;;;;;;2.20;2.10;;;;;;;;;;5060455;28;20244;-74
2022/01/28 14:51:38;;;;;;;0.60;0.60;;;;;;;;;;5060259;28;21406;-75
2022/01/28 14:54:06;;;;;;;0.57;0.57;;;;;;;;;;5058724;28;22469;-73
2022/01/28 14:56:36;;;;;;;1.17;1.10;;;;;;;;;;5059993;28;20598;-74
2022/01/28 14:59:03;;;;;;;1.60;1.30;;;;;;;;;;5066312;28;20229;-74
2022/01/28 15:01:31;;;;;;;1.53;1.43;;;;;;;;;;5069594;28;20199;-74
2022/01/28 15:03:59;;;;;;;3.67;2.40;;;;;;;;;;5062677;28;20219;-75
2022/01/28 15:06:27;;;;;;;0.77;0.57;;;;;;;;;;5062009;28;20206;-74
2022/01/28 15:08:59;;;;;;;3.40;3.17;;;;;;;;;;5063167;28;20213;-74
2022/01/28 15:11:35;;;;;;;1.40;1.40;;;;;;;;;;5061709;28;20210;-73
2022/01/28 15:14:04;;;;;;;0.50;0.47;;;;;;;;;;5061822;28;20186;-73
2022/01/28 15:16:31;;;;;;;2.57;2.17;;;;;;;;;;5062168;28;20696;-74
2022/01/28 15:19:00;;;;;;;5.17;4.67;;;;;;;;;;5060978;28;20203;-75
2022/01/28 15:21:28;;;;;;;0.63;0.63;;;;;;;;;;5060824;28;20660;-74
2022/01/28 15:23:55;;;;;;;1.50;1.03;;;;;;;;;;5062104;28;20227;-74
2022/01/28 15:26:23;;;;;;;2.93;2.73;;;;;;;;;;5064719;28;20213;-74
2022/01/28 15:29:01;;;;;;;3.50;2.13;;;;;;;;;;5065072;28;20275;-74
2022/01/28 15:34:27;;;;;;;0.77;0.77;;;;;;;;;;5061692;28;20213;-74
2022/01/28 15:36:55;;;;;;;0.87;0.87;;;;;;;;;;5061974;28;20527;-74
2022/01/28 15:39:22;;;;;;;0.30;0.30;;;;;;;;;;5063379;28;20309;-75
2022/01/28 15:41:50;;;;;;;0.73;0.73;;;;;;;;;;5063004;28;20545;-74
2022/01/28 15:44:18;;;;;;;0.00;0.00;;;;;;;;;;5061442;28;20231;-74
2022/01/28 15:46:47;;;;;;;1.33;1.23;;;;;;;;;;5065496;28;20211;-74
2022/01/28 15:49:14;;;;;;;14.43;2.93;;;;;;;;;;5061217;28;20233;-74
2022/01/28 15:51:42;;;;;;;3.57;3.30;;;;;;;;;;5064148;28;20341;-74
2022/01/28 15:54:11;;;;;;;2.00;1.63;;;;;;;;;;5062359;28;20187;-74
2022/01/28 15:56:38;;;;;;;2.33;1.50;;;;;;;;;;5060769;28;20252;-74
2022/01/28 15:59:05;;;;;;;0.83;0.83;;;;;;;;;;5063135;28;20199;-74
2022/01/28 16:01:33;;;;;;;1.83;1.77;;;;;;;;;;5061010;28;20207;-73
2022/01/28 16:04:01;;;;;;;3.33;3.13;;;;;;;;;;5061997;28;20218;-74
2022/01/28 16:06:30;;;;;;;0.50;0.50;;;;;;;;;;5060525;28;20195;-74
2022/01/28 16:08:59;;;;;;;4.53;3.40;;;;;;;;;;5061943;28;20199;-74
2022/01/28 16:11:31;;;;;;;0.20;0.20;;;;;;;;;;5060316;28;20264;-73
2022/01/28 16:14:12;;;;;;;1.60;0.97;;;;;;;;;;5060636;28;20747;-74
2022/01/28 16:19:26;;;;;;;0.00;0.00;;;;;;;;;;5061666;28;20319;-74
2022/01/28 16:21:55;;;;;;;0.20;0.20;;;;;;;;;;5069960;28;20195;-73
2022/01/28 16:24:22;;;;;;;0.00;0.00;;;;;;;;;;5069909;28;20233;-74
2022/01/28 16:26:50;;;;;;;0.63;0.13;;;;;;;;;;5056122;28;20199;-74
2022/01/28 16:29:18;;;;;;;1.70;1.60;;;;;;;;;;5049240;28;20244;-73
2022/01/28 16:31:45;;;;;;;0.00;0.00;;;;;;;;;;5049913;28;20199;-73
2022/01/28 16:34:15;;;;;;;6.83;3.93;;;;;;;;;;5049439;28;20203;-74
2022/01/28 16:36:44;;;;;;;1.03;0.97;;;;;;;;;;5060873;28;20210;-74
2022/01/28 16:39:12;;;;;;;1.80;1.70;;;;;;;;;;5061551;28;20221;-73
2022/01/28 16:41:42;;;;;;;1.30;1.27;;;;;;;;;;5062314;28;21707;-73
2022/01/28 16:44:12;;;;;;;1.70;1.43;;;;;;;;;;5063323;28;20223;-74
2022/01/28 16:46:40;;;;;;;0.97;0.63;;;;;;;;;;5060749;28;20257;-74
2022/01/28 16:49:08;;;;;;;0.60;0.60;;;;;;;;;;5060717;28;20199;-74
2022/01/28 16:51:36;;;;;;;0.93;0.90;;;;;;;;;;5060817;28;20699;-74
2022/01/28 16:54:06;;;;;;;1.43;1.33;;;;;;;;;;5060882;28;20607;-73
2022/01/28 16:56:33;;;;;;;1.00;1.00;;;;;;;;;;5060930;28;20277;-74
2022/01/28 16:59:00;;;;;;;1.30;1.17;;;;;;;;;;5059371;28;20203;-74
2022/01/28 17:01:28;;;;;;;0.30;0.30;;;;;;;;;;5060536;28;20680;-74
2022/01/28 17:03:55;;;;;;;0.10;0.10;;;;;;;;;;5059122;28;20307;-74
2022/01/28 17:06:27;;;;;;;0.17;0.17;;;;;;;;;;5060239;28;20198;-73
2022/01/28 17:08:57;;;;;;;0.00;0.00;;;;;;;;;;5059533;28;20637;-73
2022/01/28 17:11:38;;;;;;;0.00;0.00;;;;;;;;;;5059891;28;20201;-73